Time;durP1;ratioP1;P1;durP2;ratioP2;P2;SDS_P1;SDS_P2;PMS_P1;PMS_P2;Temp;Humidity;BMP_temperature;BMP_pressure;BME280_temperature;BME280_humidity;BME280_pressure;Samples;Min_cycle;Max_cycle;Signal;HPM_P1;HPM_P2
2022/11/07 00:01:43;;;;;;;;;;;10.70;92.90;;;;;;4987585;28;19910;-73
2022/11/07 00:04:09;;;;;;;;;;;10.80;93.00;;;;;;4986266;28;19930;-73
2022/11/07 00:06:36;;;;;;;;;;;10.80;93.00;;;;;;4987376;28;20546;-73
2022/11/07 00:09:02;;;;;;;;;;;10.80;93.00;;;;;;4987473;28;19913;-73
2022/11/07 00:11:27;;;;;;;;;;;10.80;93.10;;;;;;4987205;28;20632;-73
2022/11/07 00:13:53;;;;;;;;;;;10.80;93.00;;;;;;4987317;28;19918;-74
2022/11/07 00:16:18;;;;;;;;;;;10.80;93.10;;;;;;4986780;28;19924;-73
2022/11/07 00:18:44;;;;;;;;;;;10.80;93.00;;;;;;4987415;28;20386;-73
2022/11/07 00:21:09;;;;;;;;;;;10.80;93.20;;;;;;4986913;28;20275;-73
2022/11/07 00:23:35;;;;;;;;;;;10.80;93.10;;;;;;4986920;28;19944;-73
2022/11/07 00:26:01;;;;;;;;;;;10.80;93.10;;;;;;4987103;28;20247;-73
2022/11/07 00:28:27;;;;;;;;;;;10.80;93.10;;;;;;4987191;28;19960;-73
2022/11/07 00:30:52;;;;;;;;;;;10.70;93.10;;;;;;4986763;28;20551;-73
2022/11/07 00:33:18;;;;;;;;;;;10.80;93.10;;;;;;4986762;28;19913;-73
2022/11/07 00:35:43;;;;;;;;;;;10.80;93.10;;;;;;4987003;28;19918;-73
2022/11/07 00:38:09;;;;;;;;;;;10.80;93.20;;;;;;4986831;28;20012;-73
2022/11/07 00:40:34;;;;;;;;;;;10.80;93.20;;;;;;4986667;28;19917;-73
2022/11/07 00:43:00;;;;;;;;;;;10.80;93.10;;;;;;4986213;28;19953;-73
2022/11/07 00:45:25;;;;;;;;;;;10.80;93.20;;;;;;4986532;28;20243;-73
2022/11/07 00:47:51;;;;;;;;;;;10.80;93.20;;;;;;4986691;28;19918;-74
2022/11/07 00:50:16;;;;;;;;;;;10.80;93.20;;;;;;4986850;28;20004;-73
2022/11/07 00:52:42;;;;;;;;;;;10.80;93.20;;;;;;4987328;28;20378;-73
2022/11/07 00:55:07;;;;;;;;;;;10.80;93.20;;;;;;4986833;28;19918;-73
2022/11/07 00:57:33;;;;;;;;;;;10.80;93.30;;;;;;4986646;28;19972;-73
2022/11/07 00:59:58;;;;;;;;;;;10.80;93.20;;;;;;4986048;28;19910;-73
2022/11/07 01:02:24;;;;;;;;;;;10.80;93.20;;;;;;4985880;28;20004;-73
2022/11/07 01:07:33;;;;;;;;;;;10.80;93.30;;;;;;4986475;28;19920;-73
2022/11/07 01:09:59;;;;;;;;;;;10.80;93.30;;;;;;4986088;28;19925;-73
2022/11/07 01:12:24;;;;;;;;;;;10.80;93.30;;;;;;4986188;28;19996;-73
2022/11/07 01:14:50;;;;;;;;;;;10.80;93.30;;;;;;4986202;28;19922;-73
2022/11/07 01:17:15;;;;;;;;;;;10.80;93.30;;;;;;4985965;28;19965;-74
2022/11/07 01:19:41;;;;;;;;;;;10.80;93.30;;;;;;4985026;28;19921;-74
2022/11/07 01:22:06;;;;;;;;;;;10.80;93.30;;;;;;4985809;28;19981;-74
2022/11/07 01:24:32;;;;;;;;;;;10.80;93.30;;;;;;4985862;28;19914;-73
2022/11/07 01:26:57;;;;;;;;;;;10.80;93.30;;;;;;4985600;28;19917;-73
2022/11/07 01:29:23;;;;;;;;;;;10.80;93.30;;;;;;4985493;28;19940;-74
2022/11/07 01:31:48;;;;;;;;;;;10.70;93.30;;;;;;4984490;28;19913;-73
2022/11/07 01:34:14;;;;;;;;;;;10.70;93.30;;;;;;4985653;28;19921;-73
2022/11/07 01:36:39;;;;;;;;;;;10.70;93.40;;;;;;4985082;28;19918;-73
2022/11/07 01:39:05;;;;;;;;;;;10.70;93.30;;;;;;4979827;28;19918;-73
2022/11/07 01:41:32;;;;;;;;;;;10.70;93.30;;;;;;4966662;28;19993;-74
2022/11/07 01:43:57;;;;;;;;;;;10.70;93.30;;;;;;4985867;28;20437;-73
2022/11/07 01:46:25;;;;;;;;;;;10.70;93.40;;;;;;4985978;28;20005;-73
2022/11/07 01:48:57;;;;;;;;;;;10.70;93.40;;;;;;4985787;28;19914;-73
2022/11/07 01:51:23;;;;;;;;;;;10.70;93.50;;;;;;4984879;28;19957;-73
2022/11/07 01:53:50;;;;;;;;;;;10.70;93.40;;;;;;4985210;28;19917;-73
2022/11/07 01:56:16;;;;;;;;;;;10.70;93.50;;;;;;4985826;28;20001;-73
2022/11/07 01:58:42;;;;;;;;;;;10.70;93.50;;;;;;4986158;28;20027;-74
2022/11/07 02:01:08;;;;;;;;;;;10.60;93.50;;;;;;4985669;28;20383;-73
2022/11/07 02:03:33;;;;;;;;;;;10.70;93.50;;;;;;4986138;28;19921;-73
2022/11/07 02:06:04;;;;;;;;;;;10.60;93.40;;;;;;4985644;28;19913;-73
2022/11/07 02:08:31;;;;;;;;;;;10.70;93.50;;;;;;4984834;28;20638;-73
2022/11/07 02:10:59;;;;;;;;;;;10.60;93.40;;;;;;4985412;28;19987;-73
2022/11/07 02:13:25;;;;;;;;;;;10.60;93.50;;;;;;4985688;28;19914;-73
2022/11/07 02:15:51;;;;;;;;;;;10.60;93.40;;;;;;4988105;28;19996;-73
2022/11/07 02:18:17;;;;;;;;;;;10.60;93.40;;;;;;4989454;28;20295;-73
2022/11/07 02:20:43;;;;;;;;;;;10.60;93.40;;;;;;4989133;28;20013;-73
2022/11/07 02:23:29;;;;;;;;;;;10.60;93.40;;;;;;4988942;28;19918;-73
2022/11/07 02:25:54;;;;;;;;;;;10.60;93.40;;;;;;4988093;28;20629;-73
2022/11/07 02:28:22;;;;;;;;;;;10.60;93.40;;;;;;4989488;28;19914;-74
2022/11/07 02:30:47;;;;;;;;;;;10.60;93.50;;;;;;4989019;28;20252;-73
2022/11/07 02:33:17;;;;;;;;;;;10.60;93.40;;;;;;4989490;28;19956;-74
2022/11/07 02:35:44;;;;;;;;;;;10.60;93.40;;;;;;4989461;28;20004;-73
2022/11/07 02:38:12;;;;;;;;;;;10.60;93.50;;;;;;4989546;28;20375;-74
2022/11/07 02:40:38;;;;;;;;;;;10.60;93.50;;;;;;4988037;28;19992;-73
2022/11/07 02:43:05;;;;;;;;;;;10.60;93.60;;;;;;4989049;28;19917;-73
2022/11/07 02:45:33;;;;;;;;;;;10.50;93.50;;;;;;4989159;28;19914;-73
2022/11/07 02:47:59;;;;;;;;;;;10.50;93.40;;;;;;4989112;28;19994;-73
2022/11/07 02:50:24;;;;;;;;;;;10.60;93.50;;;;;;4988731;28;19910;-73
2022/11/07 02:52:50;;;;;;;;;;;10.50;93.50;;;;;;4988444;28;19925;-73
2022/11/07 02:55:15;;;;;;;;;;;10.50;93.60;;;;;;4988430;28;20033;-73
2022/11/07 02:57:41;;;;;;;;;;;10.60;93.50;;;;;;4988309;28;19917;-73
2022/11/07 03:00:08;;;;;;;;;;;10.60;93.50;;;;;;4988739;28;19921;-74
2022/11/07 03:02:33;;;;;;;;;;;10.50;93.50;;;;;;4988716;28;20004;-73
2022/11/07 03:04:59;;;;;;;;;;;10.50;93.50;;;;;;4987628;28;20557;-73
2022/11/07 03:07:24;;;;;;;;;;;10.50;93.50;;;;;;4988363;28;19925;-73
2022/11/07 03:09:50;;;;;;;;;;;10.60;93.80;;;;;;4988125;28;20438;-73
2022/11/07 03:12:15;;;;;;;;;;;10.60;93.50;;;;;;4988457;28;20291;-73
2022/11/07 03:14:41;;;;;;;;;;;10.50;93.50;;;;;;4987877;28;19967;-73
2022/11/07 03:17:07;;;;;;;;;;;10.60;93.50;;;;;;4988494;28;19914;-73
2022/11/07 03:19:32;;;;;;;;;;;10.60;93.60;;;;;;4988210;28;19914;-73
2022/11/07 03:21:58;;;;;;;;;;;10.60;93.60;;;;;;4988725;28;20013;-74
2022/11/07 03:24:23;;;;;;;;;;;10.60;93.50;;;;;;4987188;28;19918;-73
2022/11/07 03:26:49;;;;;;;;;;;10.60;93.60;;;;;;4988196;28;20412;-73
2022/11/07 03:29:14;;;;;;;;;;;10.60;93.60;;;;;;4988155;28;19913;-73
2022/11/07 03:31:40;;;;;;;;;;;10.60;93.60;;;;;;4985762;28;20009;-73
2022/11/07 03:34:05;;;;;;;;;;;10.60;93.50;;;;;;4988115;28;20032;-73
2022/11/07 03:36:31;;;;;;;;;;;10.60;93.60;;;;;;4987988;28;19964;-73
2022/11/07 03:38:56;;;;;;;;;;;10.60;93.60;;;;;;4987495;28;19920;-73
2022/11/07 03:41:21;;;;;;;;;;;10.60;93.60;;;;;;4987667;28;19913;-73
2022/11/07 03:43:47;;;;;;;;;;;10.60;93.60;;;;;;4984288;28;19914;-73
2022/11/07 03:46:14;;;;;;;;;;;10.60;93.60;;;;;;4987363;28;19914;-73
2022/11/07 03:48:39;;;;;;;;;;;10.60;93.60;;;;;;4988320;28;19913;-73
2022/11/07 03:51:05;;;;;;;;;;;10.60;93.60;;;;;;4987662;28;19910;-73
2022/11/07 03:53:31;;;;;;;;;;;10.60;93.60;;;;;;4988484;28;20669;-73
2022/11/07 03:55:57;;;;;;;;;;;10.60;93.60;;;;;;4987998;28;19994;-73
2022/11/07 03:58:23;;;;;;;;;;;10.60;93.60;;;;;;4987420;28;19957;-73
2022/11/07 04:00:48;;;;;;;;;;;10.50;93.60;;;;;;4987514;28;19914;-73
2022/11/07 04:03:14;;;;;;;;;;;10.50;93.60;;;;;;5002387;28;19945;-73
2022/11/07 04:05:40;;;;;;;;;;;10.50;93.60;;;;;;4987639;28;19949;-74
2022/11/07 04:08:05;;;;;;;;;;;10.50;93.60;;;;;;4987518;28;19953;-73
2022/11/07 04:10:31;;;;;;;;;;;10.50;93.60;;;;;;4986637;28;20303;-73
2022/11/07 04:18:25;;;;;;;;;;;10.50;93.70;;;;;;4987492;28;19932;-74
2022/11/07 04:20:51;;;;;;;;;;;10.50;93.60;;;;;;4986889;28;20665;-73
2022/11/07 04:23:16;;;;;;;;;;;10.50;93.60;;;;;;4986964;28;19917;-73
2022/11/07 04:28:25;;;;;;;;;;;10.50;93.60;;;;;;4987677;28;19920;-74
2022/11/07 04:30:51;;;;;;;;;;;10.50;93.70;;;;;;4986995;28;20314;-73
2022/11/07 04:33:16;;;;;;;;;;;10.50;93.70;;;;;;4987801;28;19913;-74
2022/11/07 04:35:42;;;;;;;;;;;10.50;93.60;;;;;;4990705;28;20024;-73
2022/11/07 04:38:07;;;;;;;;;;;10.50;93.80;;;;;;4984845;28;20502;-74
2022/11/07 04:40:33;;;;;;;;;;;10.50;93.80;;;;;;4985479;28;19970;-73
2022/11/07 04:42:59;;;;;;;;;;;10.50;93.70;;;;;;4985859;28;19914;-73
2022/11/07 04:45:24;;;;;;;;;;;10.50;93.70;;;;;;4985973;28;19913;-73
2022/11/07 04:47:50;;;;;;;;;;;10.50;93.80;;;;;;4985670;28;19918;-73
2022/11/07 04:50:16;;;;;;;;;;;10.50;93.70;;;;;;4986298;28;19925;-73
2022/11/07 04:52:42;;;;;;;;;;;10.50;93.90;;;;;;4987021;28;20001;-73
2022/11/07 04:55:09;;;;;;;;;;;10.50;93.70;;;;;;4986801;28;20008;-73
2022/11/07 04:57:34;;;;;;;;;;;10.50;93.70;;;;;;4986899;28;19988;-74
2022/11/07 05:00:00;;;;;;;;;;;10.50;93.70;;;;;;4985241;28;20347;-74
2022/11/07 05:02:25;;;;;;;;;;;10.50;93.70;;;;;;4986581;28;19917;-73
2022/11/07 05:04:51;;;;;;;;;;;10.50;93.70;;;;;;4986781;28;19945;-73
2022/11/07 05:07:17;;;;;;;;;;;10.50;93.70;;;;;;4986964;28;19921;-73
2022/11/07 05:09:43;;;;;;;;;;;10.50;93.80;;;;;;4986145;28;19921;-73
2022/11/07 05:12:08;;;;;;;;;;;10.50;93.70;;;;;;4986427;28;19909;-73
2022/11/07 05:14:34;;;;;;;;;;;10.50;93.80;;;;;;4986457;28;19952;-73
2022/11/07 05:17:00;;;;;;;;;;;10.50;93.70;;;;;;4986001;28;19917;-73
2022/11/07 05:19:26;;;;;;;;;;;10.50;93.80;;;;;;4985774;28;19952;-73
2022/11/07 05:23:10;;;;;;;;;;;10.50;93.80;;;;;;4986029;28;20298;-73
2022/11/07 05:24:37;;;;;;;;;;;10.50;93.70;;;;;;4986229;28;19929;-73
2022/11/07 05:27:03;;;;;;;;;;;10.50;93.90;;;;;;4986419;28;19921;-73
2022/11/07 05:29:28;;;;;;;;;;;10.50;93.70;;;;;;4986150;28;19914;-73
2022/11/07 05:31:54;;;;;;;;;;;10.50;93.70;;;;;;4986162;28;20351;-73
2022/11/07 05:34:19;;;;;;;;;;;10.50;93.70;;;;;;4986535;28;19921;-73
2022/11/07 05:36:44;;;;;;;;;;;10.50;93.70;;;;;;4985898;28;20621;-74
2022/11/07 05:39:10;;;;;;;;;;;10.50;93.70;;;;;;4986507;28;19931;-73
2022/11/07 05:41:35;;;;;;;;;;;10.50;93.80;;;;;;4986155;28;20461;-73
2022/11/07 05:44:01;;;;;;;;;;;10.50;93.90;;;;;;4986314;28;19913;-73
2022/11/07 05:46:26;;;;;;;;;;;10.50;94.00;;;;;;4982898;28;19914;-73
2022/11/07 05:48:52;;;;;;;;;;;10.50;93.70;;;;;;4985931;28;19997;-73
2022/11/07 05:51:17;;;;;;;;;;;10.50;93.80;;;;;;4985250;28;19917;-73
2022/11/07 05:53:43;;;;;;;;;;;10.50;93.70;;;;;;4985554;28;19917;-73
2022/11/07 05:56:08;;;;;;;;;;;10.50;93.80;;;;;;4984124;28;19918;-73
2022/11/07 05:58:34;;;;;;;;;;;10.50;93.70;;;;;;4984287;28;19914;-73
2022/11/07 06:01:03;;;;;;;;;;;10.50;93.90;;;;;;4985171;28;20398;-73
2022/11/07 06:03:29;;;;;;;;;;;10.50;93.70;;;;;;4985636;28;20355;-73
2022/11/07 06:05:55;;;;;;;;;;;10.50;93.70;;;;;;4985818;28;19976;-74
2022/11/07 06:08:20;;;;;;;;;;;10.50;93.70;;;;;;4985543;28;19918;-73
2022/11/07 06:10:46;;;;;;;;;;;10.50;93.80;;;;;;4985719;28;19929;-73
2022/11/07 06:13:12;;;;;;;;;;;10.50;94.00;;;;;;4985958;28;19914;-73
2022/11/07 06:15:38;;;;;;;;;;;10.50;93.80;;;;;;4986325;28;20605;-73
2022/11/07 06:18:05;;;;;;;;;;;10.50;93.70;;;;;;4985947;28;19913;-74
2022/11/07 06:20:32;;;;;;;;;;;10.50;93.80;;;;;;4985214;28;20676;-73
2022/11/07 06:23:01;;;;;;;;;;;10.50;94.00;;;;;;4985858;28;19921;-73
2022/11/07 06:25:27;;;;;;;;;;;10.50;93.70;;;;;;4985032;28;20427;-73
2022/11/07 06:27:57;;;;;;;;;;;10.50;93.80;;;;;;4983856;28;20302;-74
2022/11/07 06:30:22;;;;;;;;;;;10.60;93.70;;;;;;4984963;28;19993;-73
2022/11/07 06:32:48;;;;;;;;;;;10.60;93.90;;;;;;4985672;28;20017;-74
2022/11/07 06:35:13;;;;;;;;;;;10.60;93.80;;;;;;4985383;28;19983;-73
2022/11/07 06:37:39;;;;;;;;;;;10.60;93.70;;;;;;4985622;28;20126;-73
2022/11/07 06:40:05;;;;;;;;;;;10.60;93.70;;;;;;4985269;28;19921;-73
2022/11/07 06:42:31;;;;;;;;;;;10.60;93.70;;;;;;4985329;28;19926;-73
2022/11/07 06:44:56;;;;;;;;;;;10.60;93.90;;;;;;4985533;28;20518;-73
2022/11/07 06:47:22;;;;;;;;;;;10.60;93.80;;;;;;4985669;28;19914;-73
2022/11/07 06:49:47;;;;;;;;;;;10.60;94.10;;;;;;4985159;28;20566;-73
2022/11/07 06:52:13;;;;;;;;;;;10.60;93.80;;;;;;4985545;28;19953;-73
2022/11/07 06:54:38;;;;;;;;;;;10.60;93.70;;;;;;4985227;28;20338;-74
2022/11/07 06:57:04;;;;;;;;;;;10.60;93.70;;;;;;4985303;28;19921;-73
2022/11/07 06:59:29;;;;;;;;;;;10.70;93.80;;;;;;4984753;28;19956;-73
2022/11/07 07:01:54;;;;;;;;;;;10.70;93.80;;;;;;4987556;28;19914;-73
2022/11/07 07:04:20;;;;;;;;;;;10.70;93.70;;;;;;4988502;28;20430;-73
2022/11/07 07:06:45;;;;;;;;;;;10.70;93.80;;;;;;4988703;28;19914;-74
2022/11/07 07:09:11;;;;;;;;;;;10.70;93.80;;;;;;4988372;28;19918;-73
2022/11/07 07:11:37;;;;;;;;;;;10.70;93.70;;;;;;4988292;28;19916;-73
2022/11/07 07:14:05;;;;;;;;;;;10.70;93.70;;;;;;4988469;28;19913;-74
2022/11/07 07:16:31;;;;;;;;;;;10.70;93.70;;;;;;4988131;28;19926;-73
2022/11/07 07:18:56;;;;;;;;;;;10.70;93.70;;;;;;4988505;28;19964;-73
2022/11/07 07:21:22;;;;;;;;;;;10.80;93.70;;;;;;4988234;28;19953;-73
2022/11/07 07:23:47;;;;;;;;;;;10.80;93.70;;;;;;4988476;28;19925;-73
2022/11/07 07:26:14;;;;;;;;;;;10.80;93.80;;;;;;4988813;28;19918;-73
2022/11/07 07:28:40;;;;;;;;;;;10.80;93.70;;;;;;4987159;28;19918;-73
2022/11/07 07:31:07;;;;;;;;;;;10.80;93.70;;;;;;4988236;28;19984;-73
2022/11/07 07:33:32;;;;;;;;;;;10.90;93.60;;;;;;4987728;28;19931;-74
2022/11/07 07:35:58;;;;;;;;;;;10.80;93.70;;;;;;4988086;28;19920;-74
2022/11/07 07:38:23;;;;;;;;;;;10.90;93.80;;;;;;4987985;28;20274;-73
2022/11/07 07:40:49;;;;;;;;;;;10.90;93.80;;;;;;4987580;28;19921;-74
2022/11/07 07:43:14;;;;;;;;;;;10.90;93.80;;;;;;4987636;28;20565;-74
2022/11/07 07:45:40;;;;;;;;;;;10.90;93.80;;;;;;4987427;28;19921;-73
2022/11/07 07:48:05;;;;;;;;;;;10.90;93.70;;;;;;4987264;28;19914;-73
2022/11/07 07:50:31;;;;;;;;;;;11.00;93.70;;;;;;4987303;28;19922;-73
2022/11/07 07:52:57;;;;;;;;;;;11.00;94.00;;;;;;4985951;28;19918;-73
2022/11/07 07:55:23;;;;;;;;;;;11.00;93.60;;;;;;4987537;28;19918;-73
2022/11/07 07:57:48;;;;;;;;;;;11.00;93.60;;;;;;4986956;28;19960;-73
2022/11/07 08:00:14;;;;;;;;;;;11.00;93.70;;;;;;4987850;28;20006;-73
2022/11/07 08:02:43;;;;;;;;;;;11.00;93.70;;;;;;4988018;28;19959;-73
2022/11/07 08:05:09;;;;;;;;;;;11.00;93.60;;;;;;4987402;28;19980;-73
2022/11/07 08:07:34;;;;;;;;;;;11.10;93.60;;;;;;4986234;28;19914;-73
2022/11/07 08:10:00;;;;;;;;;;;11.10;93.90;;;;;;4986834;28;19928;-73
2022/11/07 08:12:25;;;;;;;;;;;11.10;93.70;;;;;;4986136;28;19917;-73
2022/11/07 08:14:51;;;;;;;;;;;11.20;93.60;;;;;;4987592;28;19914;-73
2022/11/07 08:17:16;;;;;;;;;;;11.20;93.70;;;;;;4987011;28;20020;-73
2022/11/07 08:19:42;;;;;;;;;;;11.20;93.70;;;;;;4987188;28;20530;-73
2022/11/07 08:22:07;;;;;;;;;;;11.20;93.80;;;;;;4987356;28;20306;-73
2022/11/07 08:24:33;;;;;;;;;;;11.20;93.70;;;;;;4987291;28;19914;-73
2022/11/07 08:26:58;;;;;;;;;;;11.30;93.70;;;;;;4987509;28;20062;-74
2022/11/07 08:29:24;;;;;;;;;;;11.30;93.80;;;;;;4987429;28;20650;-73
2022/11/07 08:31:49;;;;;;;;;;;11.40;94.00;;;;;;4987285;28;19913;-73
2022/11/07 08:34:16;;;;;;;;;;;11.40;93.70;;;;;;4987365;28;20454;-73
2022/11/07 08:36:41;;;;;;;;;;;11.40;93.90;;;;;;4987274;28;19918;-73
2022/11/07 08:39:07;;;;;;;;;;;11.40;93.80;;;;;;4987118;28;20680;-74
2022/11/07 08:41:32;;;;;;;;;;;11.40;93.80;;;;;;4985637;28;19918;-74
2022/11/07 08:43:58;;;;;;;;;;;11.40;93.80;;;;;;4987010;28;20363;-73
2022/11/07 08:46:23;;;;;;;;;;;11.40;93.90;;;;;;4986934;28;19973;-73
2022/11/07 08:48:49;;;;;;;;;;;11.50;93.90;;;;;;4987050;28;19960;-73
2022/11/07 08:51:15;;;;;;;;;;;11.50;94.00;;;;;;4986522;28;19914;-74
2022/11/07 08:53:40;;;;;;;;;;;11.50;93.90;;;;;;4986791;28;20689;-74
2022/11/07 08:56:07;;;;;;;;;;;11.50;93.90;;;;;;4986652;28;19964;-73
2022/11/07 08:58:33;;;;;;;;;;;11.50;94.00;;;;;;4987210;28;19918;-74
2022/11/07 09:00:58;;;;;;;;;;;11.50;94.00;;;;;;4986357;28;19914;-74
2022/11/07 09:03:24;;;;;;;;;;;11.50;94.00;;;;;;4986973;28;19914;-73
2022/11/07 09:05:50;;;;;;;;;;;11.50;93.90;;;;;;4986757;28;19960;-73
2022/11/07 09:08:15;;;;;;;;;;;11.60;93.90;;;;;;4986604;28;19921;-73
2022/11/07 09:10:41;;;;;;;;;;;11.60;93.90;;;;;;4986325;28;20642;-73
2022/11/07 09:13:06;;;;;;;;;;;11.60;93.80;;;;;;4985226;28;19914;-74
2022/11/07 09:15:32;;;;;;;;;;;11.60;94.20;;;;;;4986318;28;19910;-74
2022/11/07 09:18:04;;;;;;;;;;;11.60;93.80;;;;;;4986945;28;19925;-74
2022/11/07 09:20:30;;;;;;;;;;;11.70;94.00;;;;;;4985994;28;20406;-73
2022/11/07 09:22:56;;;;;;;;;;;11.70;94.00;;;;;;4986477;28;19920;-73
2022/11/07 09:25:22;;;;;;;;;;;11.70;93.80;;;;;;4985955;28;19921;-73
2022/11/07 09:27:50;;;;;;;;;;;11.80;94.00;;;;;;4985874;28;20442;-73
2022/11/07 09:30:16;;;;;;;;;;;11.80;93.90;;;;;;4985787;28;20448;-73
2022/11/07 09:32:41;;;;;;;;;;;11.80;93.70;;;;;;4986090;28;20518;-74
2022/11/07 09:35:07;;;;;;;;;;;11.90;94.00;;;;;;4986305;28;19928;-73
2022/11/07 09:37:33;;;;;;;;;;;11.90;93.80;;;;;;4985964;28;19917;-73
2022/11/07 09:39:58;;;;;;;;;;;11.90;93.90;;;;;;5001059;28;19910;-73
2022/11/07 09:42:26;;;;;;;;;;;12.00;93.80;;;;;;4986097;28;19910;-74
2022/11/07 09:44:57;;;;;;;;;;;12.10;93.90;;;;;;4986067;28;20371;-73
2022/11/07 09:47:28;;;;;;;;;;;12.10;93.90;;;;;;4986041;28;19910;-73
2022/11/07 09:49:54;;;;;;;;;;;12.20;93.60;;;;;;4985712;28;19909;-73
2022/11/07 09:52:19;;;;;;;;;;;12.10;93.70;;;;;;4986031;28;19920;-74
2022/11/07 09:54:52;;;;;;;;;;;12.20;93.60;;;;;;4986138;28;19913;-74
2022/11/07 09:57:18;;;;;;;;;;;12.20;94.00;;;;;;4969417;28;19929;-74
2022/11/07 09:59:48;;;;;;;;;;;12.20;93.50;;;;;;4969158;28;20334;-74
2022/11/07 10:02:15;;;;;;;;;;;12.30;93.50;;;;;;4985574;28;20514;-74
2022/11/07 10:04:41;;;;;;;;;;;12.30;93.70;;;;;;4985962;28;19918;-73
2022/11/07 10:07:13;;;;;;;;;;;12.30;93.70;;;;;;4986061;28;19913;-74
2022/11/07 10:09:45;;;;;;;;;;;12.30;93.80;;;;;;4985462;28;19921;-73
2022/11/07 10:12:23;;;;;;;;;;;12.30;93.80;;;;;;4985323;28;19914;-73
2022/11/07 10:14:56;;;;;;;;;;;12.20;93.90;;;;;;4985165;28;20286;-73
2022/11/07 10:17:22;;;;;;;;;;;12.30;94.00;;;;;;4985795;28;19924;-74
2022/11/07 10:20:08;;;;;;;;;;;12.30;94.20;;;;;;4985138;28;19921;-73
2022/11/07 10:22:42;;;;;;;;;;;12.30;94.20;;;;;;4985541;28;19917;-73
2022/11/07 10:25:14;;;;;;;;;;;12.30;94.20;;;;;;4985771;28;19925;-73
2022/11/07 10:27:39;;;;;;;;;;;12.30;94.10;;;;;;4985795;28;20004;-73
2022/11/07 10:30:13;;;;;;;;;;;12.20;94.10;;;;;;4985400;28;19993;-73
2022/11/07 10:33:11;;;;;;;;;;;12.20;94.20;;;;;;4985771;28;19913;-73
2022/11/07 10:35:38;;;;;;;;;;;12.20;94.20;;;;;;4983612;28;20377;-73
2022/11/07 10:38:14;;;;;;;;;;;12.20;94.20;;;;;;4989049;28;19918;-73
2022/11/07 10:40:41;;;;;;;;;;;12.20;94.30;;;;;;4988976;28;19917;-73
2022/11/07 10:43:11;;;;;;;;;;;12.20;94.30;;;;;;4989158;28;20457;-74
2022/11/07 10:45:38;;;;;;;;;;;12.20;94.30;;;;;;4989324;28;19993;-73
2022/11/07 10:48:04;;;;;;;;;;;12.20;94.40;;;;;;4989096;28;20514;-74
2022/11/07 10:50:30;;;;;;;;;;;12.20;94.30;;;;;;4988680;28;19920;-73
2022/11/07 10:52:57;;;;;;;;;;;12.20;94.60;;;;;;4988614;28;19918;-74
2022/11/07 10:55:23;;;;;;;;;;;12.20;94.40;;;;;;4988477;28;19909;-74
2022/11/07 10:57:50;;;;;;;;;;;12.20;94.40;;;;;;4988420;28;19918;-73
2022/11/07 11:00:26;;;;;;;;;;;12.20;94.40;;;;;;4988496;28;19921;-73
2022/11/07 11:02:53;;;;;;;;;;;12.20;94.50;;;;;;4988765;28;20005;-73
2022/11/07 11:05:21;;;;;;;;;;;12.20;94.40;;;;;;4989035;28;19914;-73
2022/11/07 11:07:46;;;;;;;;;;;12.20;94.60;;;;;;4988568;28;20430;-73
2022/11/07 11:10:20;;;;;;;;;;;12.20;94.50;;;;;;4987872;28;19925;-73
2022/11/07 11:12:46;;;;;;;;;;;12.30;94.60;;;;;;4988621;28;19913;-73
2022/11/07 11:15:13;;;;;;;;;;;12.30;94.50;;;;;;4988695;28;19940;-73
2022/11/07 11:17:39;;;;;;;;;;;12.30;94.50;;;;;;4988715;28;19918;-73
2022/11/07 11:20:06;;;;;;;;;;;12.30;94.60;;;;;;4988236;28;19929;-73
2022/11/07 11:22:37;;;;;;;;;;;12.30;94.60;;;;;;4988520;28;19925;-73
2022/11/07 11:25:13;;;;;;;;;;;12.30;94.60;;;;;;4988689;28;20076;-73
2022/11/07 11:27:39;;;;;;;;;;;12.40;94.50;;;;;;4988271;28;19920;-73
2022/11/07 11:30:14;;;;;;;;;;;12.40;94.50;;;;;;4988478;28;19913;-73
2022/11/07 11:32:41;;;;;;;;;;;12.40;94.50;;;;;;4988492;28;19914;-73
2022/11/07 11:35:26;;;;;;;;;;;12.40;94.40;;;;;;4988432;28;20383;-74
2022/11/07 11:37:56;;;;;;;;;;;12.40;94.50;;;;;;4988136;28;19918;-73
2022/11/07 11:40:22;;;;;;;;;;;12.50;94.50;;;;;;4988179;28;19914;-73
2022/11/07 11:42:57;;;;;;;;;;;12.50;94.60;;;;;;4987910;28;19944;-73
2022/11/07 11:45:27;;;;;;;;;;;12.60;94.60;;;;;;4988402;28;19921;-73
2022/11/07 11:48:16;;;;;;;;;;;12.60;94.60;;;;;;4988067;28;19913;-73
2022/11/07 11:50:44;;;;;;;;;;;12.70;94.30;;;;;;4986216;28;19920;-74
2022/11/07 11:53:17;;;;;;;;;;;12.70;94.50;;;;;;4987773;28;19920;-73
2022/11/07 11:55:46;;;;;;;;;;;12.80;94.60;;;;;;4988020;28;20458;-73
2022/11/07 11:58:32;;;;;;;;;;;12.80;94.40;;;;;;4987658;28;19913;-73
2022/11/07 12:01:02;;;;;;;;;;;12.80;94.40;;;;;;4987225;28;19991;-73
2022/11/07 12:03:33;;;;;;;;;;;12.80;94.50;;;;;;4984762;28;20501;-73
2022/11/07 12:06:24;;;;;;;;;;;12.80;94.40;;;;;;4987758;28;19937;-73
2022/11/07 12:08:55;;;;;;;;;;;12.80;94.30;;;;;;4987467;28;20433;-73
2022/11/07 12:11:25;;;;;;;;;;;12.80;94.40;;;;;;4987496;28;19924;-73
2022/11/07 12:13:54;;;;;;;;;;;12.80;94.50;;;;;;4985783;28;20642;-73
2022/11/07 12:16:28;;;;;;;;;;;12.90;94.40;;;;;;4987387;28;20446;-73
2022/11/07 12:18:59;;;;;;;;;;;12.90;94.50;;;;;;4987472;28;19914;-73
2022/11/07 12:21:24;;;;;;;;;;;12.90;94.50;;;;;;4986997;28;19921;-73
2022/11/07 12:23:58;;;;;;;;;;;12.90;94.50;;;;;;4987296;28;19914;-73
2022/11/07 12:26:30;;;;;;;;;;;12.90;94.50;;;;;;4987535;28;19996;-73
2022/11/07 12:29:21;;;;;;;;;;;12.90;94.60;;;;;;4987962;28;19918;-73
2022/11/07 12:31:47;;;;;;;;;;;12.90;94.50;;;;;;4986767;28;19914;-73
2022/11/07 12:34:19;;;;;;;;;;;12.90;94.60;;;;;;4987115;28;19914;-73
2022/11/07 12:36:53;;;;;;;;;;;12.90;94.50;;;;;;4987293;28;19929;-73
2022/11/07 12:39:33;;;;;;;;;;;13.00;94.60;;;;;;4987214;28;19916;-73
2022/11/07 12:42:19;;;;;;;;;;;13.00;94.50;;;;;;4987180;28;19909;-73
2022/11/07 12:44:51;;;;;;;;;;;13.00;94.30;;;;;;4985508;28;19919;-73
2022/11/07 12:47:34;;;;;;;;;;;13.00;94.20;;;;;;4986673;28;20304;-73
2022/11/07 12:50:18;;;;;;;;;;;13.00;94.20;;;;;;4986474;28;19953;-73
2022/11/07 12:52:47;;;;;;;;;;;13.10;94.40;;;;;;4986632;28;19914;-73
2022/11/07 12:55:18;;;;;;;;;;;13.10;94.50;;;;;;4986166;28;19920;-73
2022/11/07 12:57:44;;;;;;;;;;;13.10;94.50;;;;;;4986695;28;19918;-73
2022/11/07 13:00:14;;;;;;;;;;;13.20;94.30;;;;;;4985567;28;19914;-73
2022/11/07 13:02:39;;;;;;;;;;;13.20;94.40;;;;;;4985916;28;20371;-73
2022/11/07 13:05:14;;;;;;;;;;;13.20;94.20;;;;;;4985929;28;20004;-73
2022/11/07 13:07:45;;;;;;;;;;;13.30;94.20;;;;;;4986030;28;20016;-73
2022/11/07 13:10:18;;;;;;;;;;;13.30;94.30;;;;;;4984418;28;19929;-73
2022/11/07 13:13:04;;;;;;;;;;;13.30;94.20;;;;;;4985664;28;19913;-73
2022/11/07 13:15:30;;;;;;;;;;;13.30;94.40;;;;;;4986259;28;20009;-73
2022/11/07 13:17:55;;;;;;;;;;;13.30;94.20;;;;;;4985208;28;20792;-73
2022/11/07 13:20:21;;;;;;;;;;;13.30;94.40;;;;;;4985223;28;20802;-74
2022/11/07 13:22:47;;;;;;;;;;;13.30;94.20;;;;;;4985488;28;19917;-73
2022/11/07 13:25:12;;;;;;;;;;;13.30;94.40;;;;;;4985058;28;19914;-73
2022/11/07 13:27:40;;;;;;;;;;;13.30;94.30;;;;;;4984691;28;20405;-73
2022/11/07 13:30:29;;;;;;;;;;;13.30;94.40;;;;;;4984913;28;19952;-73
2022/11/07 13:32:54;;;;;;;;;;;13.30;94.30;;;;;;4984564;28;20032;-73
2022/11/07 13:35:23;;;;;;;;;;;13.30;94.40;;;;;;4985150;28;20017;-73
2022/11/07 13:38:03;;;;;;;;;;;13.30;94.30;;;;;;4985976;28;19965;-73
2022/11/07 13:40:29;;;;;;;;;;;13.30;94.40;;;;;;4984596;28;20439;-73
2022/11/07 13:42:56;;;;;;;;;;;13.30;94.40;;;;;;4985203;28;19924;-73
2022/11/07 13:45:28;;;;;;;;;;;13.30;94.50;;;;;;4986167;28;20374;-74
2022/11/07 13:47:56;;;;;;;;;;;13.30;94.50;;;;;;4986020;28;19920;-74
2022/11/07 13:50:23;;;;;;;;;;;13.30;94.60;;;;;;4985497;28;20561;-74
2022/11/07 13:52:58;;;;;;;;;;;13.30;94.70;;;;;;4983266;28;19914;-73
2022/11/07 13:55:26;;;;;;;;;;;13.30;94.60;;;;;;4975337;28;20290;-73
2022/11/07 13:57:59;;;;;;;;;;;13.30;94.60;;;;;;4985010;28;20505;-74
2022/11/07 14:00:25;;;;;;;;;;;13.30;94.90;;;;;;4985081;28;20008;-73
2022/11/07 14:02:50;;;;;;;;;;;13.30;94.60;;;;;;4985377;28;20404;-74
2022/11/07 14:05:16;;;;;;;;;;;13.30;94.60;;;;;;4985458;28;19918;-73
2022/11/07 14:07:45;;;;;;;;;;;13.30;94.50;;;;;;4985374;28;19914;-73
2022/11/07 14:10:24;;;;;;;;;;;13.30;94.60;;;;;;4984754;28;19928;-74
2022/11/07 14:12:52;;;;;;;;;;;13.30;94.70;;;;;;4989241;28;19913;-73
2022/11/07 14:15:18;;;;;;;;;;;13.30;94.60;;;;;;4988363;28;19951;-73
2022/11/07 14:17:44;;;;;;;;;;;13.20;94.70;;;;;;4989010;28;21625;-73
2022/11/07 14:20:16;;;;;;;;;;;13.20;94.70;;;;;;4989723;28;19914;-73
2022/11/07 14:22:48;;;;;;;;;;;13.20;94.70;;;;;;4989765;28;19913;-73
2022/11/07 14:25:19;;;;;;;;;;;13.20;94.60;;;;;;4989691;28;19921;-73
2022/11/07 14:27:45;;;;;;;;;;;13.20;94.70;;;;;;4988220;28;20048;-73
2022/11/07 14:30:14;;;;;;;;;;;13.30;94.70;;;;;;4989081;28;20004;-74